Naval Air Station Whiting Field

Airport
ICAO code: 
KNSE
Summary
ICAO Region: 
NAM
Territory: 
Location: 
Milton, Florida,
Coordinates: 
Aerial View: 
30° 43' 27.001" N, 87° 1' 18.991" W
Metar
Observation
KNSE 020856Z AUTO 00000KT 10SM CLR 07/06 A3016 RMK AO2 SLP198 T00720061 58002 $
Station
Milton, Whiting Field Naval Air Station North
Date/Time
2021-12-02 08:56:00
Wind direction
Wind speed
00 kts
Lowest cloud amount
n/a
Temperature
7.2°C
Dew point
6.1°C
Humidity
92%
Weather condition
n/a

Description

Naval Air Station Whiting or NAS Whiting Field, is a military airfield located 6 km north of the central business district of Milton, a city in Santa Rosa County, Florida.

Climatology

Humid “subtropical” climate (Köppen climate classification Cfa) - characterized by hot, humid summers and cool winters. Significant amounts of precipitation occur in all seasons in most areas. Winter rainfall (and sometimes snowfall) is associated with large storms that the westerlies steer from west to east. Most summer rainfall occurs during thunderstorms and occasional tropical storms (hurricanes).

Runways

Designator Length Width Surface Rops
5/23 1829 61 ASP No/No
9/27 1829 61 ASP No/No
14/32 1829 61 ASP No/No
18/36 1829 61 ASP No/No
Airport map: 
Aerial View: 

SKYbrary Partners:

Safety knowledge contributed by: